Notice: Undefined variable: arrConditions in /home/on25975/domains/weerstationbeusichem.nl/public_html/weather2/wsDataGet.php on line 150

Onweer radar blitzortung!


Regen radar rain snow radar


Bezoek onze andere website:

Template documentation
and downloads

And another site



Het weer levert geen direct gevaar op.    Er zijn geen waarschuwingen afgegeven.

METAR rapporten vliegvelden

  
EBBR - Brussels International Airport, Belgium
Afstand tot: W 14km
Gewijzigd: 25-02-2018 14:20
Helder
Helder  
 Wind vanuit ONO
Wind: ONO 20 km/h
Temperatuur:  1°C
Voelt als:  -4°C
Dauwpunt:  -15°C
Vochtigheid:  29%
Barometer:  1027 hPa
Samenvatting:  Helder
Zicht:  groter dan 10 km
2018/02/25 13:20 EBBR 251320Z 06011KT 040V100 CAVOK 01/M15 Q1027 NOSIG
EBBE - Beauvechain (Bevekom), Belgium
Afstand tot: ZZO 17km
Gewijzigd: 25-02-2018 14:25
Helder
Helder  
 Wind vanuit ONO
Wind: ONO 24 km/h
Temperatuur:  0°C
Voelt als:  -6°C
Dauwpunt:  -15°C
Vochtigheid:  32%
Barometer:  1026 hPa
Bewolking:  Helder
Zicht:  10 km
2018/02/25 13:25 EBBE 251325Z AUTO 06013KT 9999 NCD 00/M15 Q1026 BLU
EBDT - Schaffen, Belgium
Afstand tot: ONO 29km
Gewijzigd: 25-02-2018 14:25
Helder
Helder  
 Wind vanuit NO
Wind: NO 20 km/h
Temperatuur:  0°C
Voelt als:  -6°C
Dauwpunt:  -16°C
Vochtigheid:  29%
Barometer:  1028 hPa
Bewolking:  Helder
Zicht:  10 km
2018/02/25 13:25 EBDT 251325Z AUTO 05011KT 9999 NCD M00/M16 Q1028 BLU
EBAW - Antwerp/Deurne, Belgium
Afstand tot: NNW 38km
Gewijzigd: 25-02-2018 14:20
Helder
Helder  
 Wind vanuit ONO
Wind: ONO 20 km/h
Temperatuur:  1°C
Voelt als:  -4°C
Dauwpunt:  -14°C
Vochtigheid:  32%
Barometer:  1028 hPa
Samenvatting:  Helder
Zicht:  groter dan 10 km
2018/02/25 13:20 EBAW 251320Z 07011KT CAVOK 01/M14 Q1028 NOSIG
EBCI - Charleroi/Gosselies, Belgium
Afstand tot: ZZW 51km
Gewijzigd: 25-02-2018 14:20
Helder
Helder  
 Wind vanuit ONO
Wind: ONO 30 km/h
Temperatuur:  0°C
Voelt als:  -6°C
Dauwpunt:  -15°C
Vochtigheid:  32%
Barometer:  1025 hPa
Samenvatting:  Helder
Zicht:  groter dan 10 km
2018/02/25 13:20 EBCI 251320Z 06016KT CAVOK M00/M15 Q1025 NOSIG
EBLG - Bierset/Liege, Belgium
Afstand tot: OZO 60km
Gewijzigd: 25-02-2018 14:20
Helder
Helder  
 Wind vanuit ONO
Wind: ONO 24 km/h
Temperatuur:  0°C
Voelt als:  -6°C
Dauwpunt:  -18°C
Vochtigheid:  25%
Barometer:  1026 hPa
Samenvatting:  Helder
Zicht:  groter dan 10 km
2018/02/25 13:20 EBLG 251320Z 06013KT CAVOK 00/M18 Q1026 NOSIG

Script ontwikkeld door  Saratoga-weather.org Aangepast voor de template door  Weerstation Leuven

U vindt ons ook hier:


European Weather Network

AWEKAS

Weather Underground

Apparatuur in gebruik:


Weerstation
Davis VP2+

Weerprogramma
Meteobridge

Weercomputer
Asus WL -330N3G

Webleverancier
Wordpress

Davis VP2+

Meteobridge

Asus WL -330N3G

Wordpress